sensor_id;sensor_type;location;lat;lon;timestamp;P1;durP1;ratioP1;P2;durP2;ratioP2
67675;SDS011;54456;48.436;10.028;2023-04-25T03:15:08;8.45;;;2.90;;
67675;SDS011;54456;48.436;10.028;2023-04-25T03:16:39;9.30;;;3.33;;
67675;SDS011;54456;48.436;10.028;2023-04-25T03:18:09;10.47;;;3.80;;
67675;SDS011;54456;48.436;10.028;2023-04-25T03:19:39;9.33;;;3.43;;
67675;SDS011;54456;48.436;10.028;2023-04-25T03:21:10;11.73;;;3.93;;
67675;SDS011;54456;48.436;10.028;2023-04-25T03:22:40;11.67;;;3.80;;
67675;SDS011;54456;48.436;10.028;2023-04-25T03:24:10;8.93;;;3.10;;
67675;SDS011;54456;48.436;10.028;2023-04-25T03:25:43;9.82;;;3.63;;
67675;SDS011;54456;48.436;10.028;2023-04-25T03:27:13;10.67;;;3.53;;
67675;SDS011;54456;48.436;10.028;2023-04-25T03:28:43;9.53;;;3.70;;
67675;SDS011;54456;48.436;10.028;2023-04-25T03:30:14;10.60;;;3.90;;
67675;SDS011;54456;48.436;10.028;2023-04-25T03:31:44;9.67;;;3.60;;
67675;SDS011;54456;48.436;10.028;2023-04-25T03:33:14;10.93;;;3.67;;
67675;SDS011;54456;48.436;10.028;2023-04-25T03:34:44;10.53;;;3.53;;
67675;SDS011;54456;48.436;10.028;2023-04-25T03:36:15;11.55;;;4.07;;
67675;SDS011;54456;48.436;10.028;2023-04-25T03:37:45;9.93;;;3.70;;
67675;SDS011;54456;48.436;10.028;2023-04-25T03:39:15;10.20;;;3.87;;
67675;SDS011;54456;48.436;10.028;2023-04-25T03:40:45;11.80;;;3.93;;
67675;SDS011;54456;48.436;10.028;2023-04-25T03:42:16;10.27;;;3.80;;
67675;SDS011;54456;48.436;10.028;2023-04-25T03:43:46;10.65;;;3.05;;
67675;SDS011;54456;48.436;10.028;2023-04-25T03:45:16;10.63;;;3.60;;
67675;SDS011;54456;48.436;10.028;2023-04-25T03:46:46;10.13;;;3.43;;
67675;SDS011;54456;48.436;10.028;2023-04-25T03:48:17;8.70;;;3.30;;
67675;SDS011;54456;48.436;10.028;2023-04-25T03:49:47;9.90;;;3.70;;
67675;SDS011;54456;48.436;10.028;2023-04-25T03:51:19;8.70;;;3.30;;
67675;SDS011;54456;48.436;10.028;2023-04-25T03:52:49;9.83;;;3.43;;
67675;SDS011;54456;48.436;10.028;2023-04-25T03:54:19;9.27;;;3.33;;
67675;SDS011;54456;48.436;10.028;2023-04-25T03:55:50;12.93;;;3.25;;
67675;SDS011;54456;48.436;10.028;2023-04-25T03:57:20;11.60;;;3.73;;
67675;SDS011;54456;48.436;10.028;2023-04-25T03:58:50;9.80;;;3.50;;
67675;SDS011;54456;48.436;10.028;2023-04-25T04:00:20;10.37;;;3.90;;
67675;SDS011;54456;48.436;10.028;2023-04-25T04:01:51;12.93;;;3.57;;
67675;SDS011;54456;48.436;10.028;2023-04-25T04:03:21;9.20;;;2.97;;
67675;SDS011;54456;48.436;10.028;2023-04-25T04:04:51;9.80;;;3.73;;
67675;SDS011;54456;48.436;10.028;2023-04-25T04:06:21;10.40;;;3.60;;
67675;SDS011;54456;48.436;10.028;2023-04-25T04:07:52;9.20;;;3.43;;
67675;SDS011;54456;48.436;10.028;2023-04-25T04:09:22;12.53;;;3.70;;
67675;SDS011;54456;48.436;10.028;2023-04-25T04:10:52;11.23;;;3.77;;
67675;SDS011;54456;48.436;10.028;2023-04-25T04:12:22;11.30;;;3.60;;
67675;SDS011;54456;48.436;10.028;2023-04-25T04:13:52;10.97;;;3.63;;
67675;SDS011;54456;48.436;10.028;2023-04-25T04:15:23;8.87;;;3.57;;
67675;SDS011;54456;48.436;10.028;2023-04-25T04:16:53;12.10;;;3.77;;
67675;SDS011;54456;48.436;10.028;2023-04-25T04:18:23;10.63;;;3.33;;
67675;SDS011;54456;48.436;10.028;2023-04-25T04:19:53;10.53;;;3.63;;
67675;SDS011;54456;48.436;10.028;2023-04-25T04:21:24;13.47;;;3.70;;
67675;SDS011;54456;48.436;10.028;2023-04-25T04:22:54;10.15;;;3.10;;
67675;SDS011;54456;48.436;10.028;2023-04-25T04:24:24;9.77;;;3.70;;
67675;SDS011;54456;48.436;10.028;2023-04-25T04:25:55;8.37;;;3.33;;
67675;SDS011;54456;48.436;10.028;2023-04-25T04:27:26;9.20;;;3.40;;
67675;SDS011;54456;48.436;10.028;2023-04-25T04:28:56;9.67;;;3.23;;
67675;SDS011;54456;48.436;10.028;2023-04-25T04:30:26;10.37;;;3.60;;
67675;SDS011;54456;48.436;10.028;2023-04-25T04:31:59;7.88;;;3.08;;
67675;SDS011;54456;48.436;10.028;2023-04-25T04:33:31;7.80;;;2.97;;
67675;SDS011;54456;48.436;10.028;2023-04-25T04:35:01;9.18;;;3.00;;
67675;SDS011;54456;48.436;10.028;2023-04-25T04:36:31;6.47;;;2.03;;
67675;SDS011;54456;48.436;10.028;2023-04-25T04:38:01;8.83;;;3.30;;
67675;SDS011;54456;48.436;10.028;2023-04-25T04:39:32;9.17;;;2.77;;
67675;SDS011;54456;48.436;10.028;2023-04-25T04:41:03;7.80;;;3.03;;
67675;SDS011;54456;48.436;10.028;2023-04-25T04:42:33;8.18;;;2.85;;
67675;SDS011;54456;48.436;10.028;2023-04-25T04:44:04;8.57;;;2.97;;
67675;SDS011;54456;48.436;10.028;2023-04-25T04:45:34;9.95;;;3.03;;
67675;SDS011;54456;48.436;10.028;2023-04-25T04:47:04;8.17;;;2.97;;
67675;SDS011;54456;48.436;10.028;2023-04-25T04:48:36;9.50;;;2.85;;
67675;SDS011;54456;48.436;10.028;2023-04-25T04:50:07;8.85;;;3.15;;
67675;SDS011;54456;48.436;10.028;2023-04-25T04:51:39;7.43;;;2.80;;
67675;SDS011;54456;48.436;10.028;2023-04-25T04:53:10;10.52;;;3.28;;
67675;SDS011;54456;48.436;10.028;2023-04-25T04:54:41;8.43;;;2.67;;
67675;SDS011;54456;48.436;10.028;2023-04-25T04:56:11;7.60;;;2.60;;
67675;SDS011;54456;48.436;10.028;2023-04-25T04:57:42;10.27;;;2.77;;
67675;SDS011;54456;48.436;10.028;2023-04-25T04:59:12;11.73;;;2.80;;
67675;SDS011;54456;48.436;10.028;2023-04-25T05:00:42;7.63;;;2.60;;
67675;SDS011;54456;48.436;10.028;2023-04-25T05:02:13;9.27;;;2.80;;
67675;SDS011;54456;48.436;10.028;2023-04-25T05:03:43;10.00;;;3.00;;
67675;SDS011;54456;48.436;10.028;2023-04-25T05:05:13;10.80;;;3.43;;
67675;SDS011;54456;48.436;10.028;2023-04-25T05:06:44;9.87;;;3.10;;
67675;SDS011;54456;48.436;10.028;2023-04-25T05:08:14;12.32;;;3.58;;
67675;SDS011;54456;48.436;10.028;2023-04-25T05:09:44;10.20;;;3.77;;
67675;SDS011;54456;48.436;10.028;2023-04-25T05:11:15;12.17;;;3.80;;
67675;SDS011;54456;48.436;10.028;2023-04-25T05:12:45;15.73;;;3.97;;
67675;SDS011;54456;48.436;10.028;2023-04-25T05:14:15;13.35;;;3.83;;
67675;SDS011;54456;48.436;10.028;2023-04-25T05:15:46;10.02;;;3.33;;
67675;SDS011;54456;48.436;10.028;2023-04-25T05:17:17;9.07;;;3.30;;
67675;SDS011;54456;48.436;10.028;2023-04-25T05:18:47;9.20;;;2.60;;
67675;SDS011;54456;48.436;10.028;2023-04-25T05:20:17;9.00;;;3.20;;
67675;SDS011;54456;48.436;10.028;2023-04-25T05:21:49;10.18;;;3.53;;
67675;SDS011;54456;48.436;10.028;2023-04-25T05:23:19;10.00;;;3.58;;
67675;SDS011;54456;48.436;10.028;2023-04-25T05:24:49;8.98;;;3.20;;
67675;SDS011;54456;48.436;10.028;2023-04-25T05:26:21;10.52;;;3.35;;
67675;SDS011;54456;48.436;10.028;2023-04-25T05:27:51;7.22;;;2.63;;
67675;SDS011;54456;48.436;10.028;2023-04-25T05:29:22;8.70;;;3.15;;
67675;SDS011;54456;48.436;10.028;2023-04-25T05:30:52;10.67;;;3.40;;
67675;SDS011;54456;48.436;10.028;2023-04-25T05:32:22;8.67;;;3.60;;
67675;SDS011;54456;48.436;10.028;2023-04-25T05:33:54;4.78;;;1.75;;
67675;SDS011;54456;48.436;10.028;2023-04-25T05:35:25;8.48;;;3.13;;
67675;SDS011;54456;48.436;10.028;2023-04-25T05:36:55;9.70;;;3.37;;
67675;SDS011;54456;48.436;10.028;2023-04-25T05:38:25;8.57;;;3.10;;
67675;SDS011;54456;48.436;10.028;2023-04-25T05:39:55;11.83;;;4.17;;
67675;SDS011;54456;48.436;10.028;2023-04-25T05:41:26;9.23;;;3.40;;
67675;SDS011;54456;48.436;10.028;2023-04-25T05:42:56;10.70;;;4.00;;
67675;SDS011;54456;48.436;10.028;2023-04-25T05:44:26;10.47;;;3.67;;
67675;SDS011;54456;48.436;10.028;2023-04-25T05:45:56;12.30;;;3.57;;
67675;SDS011;54456;48.436;10.028;2023-04-25T05:47:27;9.80;;;3.37;;
67675;SDS011;54456;48.436;10.028;2023-04-25T05:48:58;9.73;;;3.30;;
67675;SDS011;54456;48.436;10.028;2023-04-25T05:50:28;12.97;;;4.17;;
67675;SDS011;54456;48.436;10.028;2023-04-25T05:51:58;8.67;;;3.47;;
67675;SDS011;54456;48.436;10.028;2023-04-25T05:53:28;9.53;;;3.40;;
67675;SDS011;54456;48.436;10.028;2023-04-25T05:54:59;10.25;;;4.35;;
67675;SDS011;54456;48.436;10.028;2023-04-25T05:56:29;9.00;;;3.40;;
67675;SDS011;54456;48.436;10.028;2023-04-25T05:57:59;9.77;;;3.88;;
67675;SDS011;54456;48.436;10.028;2023-04-25T05:59:30;9.77;;;3.25;;
67675;SDS011;54456;48.436;10.028;2023-04-25T06:01:01;9.43;;;3.33;;
67675;SDS011;54456;48.436;10.028;2023-04-25T06:02:31;11.50;;;3.65;;
67675;SDS011;54456;48.436;10.028;2023-04-25T06:04:01;10.30;;;3.43;;
67675;SDS011;54456;48.436;10.028;2023-04-25T06:05:31;8.83;;;3.20;;
67675;SDS011;54456;48.436;10.028;2023-04-25T06:07:05;9.77;;;3.27;;
67675;SDS011;54456;48.436;10.028;2023-04-25T06:08:35;9.30;;;3.22;;
67675;SDS011;54456;48.436;10.028;2023-04-25T06:10:05;8.17;;;3.07;;
67675;SDS011;54456;48.436;10.028;2023-04-25T06:11:36;10.13;;;3.58;;
67675;SDS011;54456;48.436;10.028;2023-04-25T06:13:06;9.17;;;3.17;;
67675;SDS011;54456;48.436;10.028;2023-04-25T06:14:37;7.95;;;2.85;;
67675;SDS011;54456;48.436;10.028;2023-04-25T06:16:07;9.30;;;3.30;;
67675;SDS011;54456;48.436;10.028;2023-04-25T06:17:37;8.87;;;3.17;;
67675;SDS011;54456;48.436;10.028;2023-04-25T06:19:07;7.60;;;2.77;;
67675;SDS011;54456;48.436;10.028;2023-04-25T06:20:38;8.80;;;2.47;;
67675;SDS011;54456;48.436;10.028;2023-04-25T06:22:08;7.73;;;2.87;;
67675;SDS011;54456;48.436;10.028;2023-04-25T06:23:38;9.38;;;3.35;;
67675;SDS011;54456;48.436;10.028;2023-04-25T06:25:08;11.20;;;3.30;;
67675;SDS011;54456;48.436;10.028;2023-04-25T06:26:39;9.10;;;3.23;;
67675;SDS011;54456;48.436;10.028;2023-04-25T06:28:09;11.30;;;3.20;;
67675;SDS011;54456;48.436;10.028;2023-04-25T06:29:39;9.43;;;3.53;;
67675;SDS011;54456;48.436;10.028;2023-04-25T06:31:09;8.83;;;3.10;;
67675;SDS011;54456;48.436;10.028;2023-04-25T06:32:40;9.68;;;3.10;;
67675;SDS011;54456;48.436;10.028;2023-04-25T06:34:10;9.05;;;3.45;;
67675;SDS011;54456;48.436;10.028;2023-04-25T06:35:40;9.55;;;3.28;;
67675;SDS011;54456;48.436;10.028;2023-04-25T06:37:11;8.40;;;3.13;;
67675;SDS011;54456;48.436;10.028;2023-04-25T06:38:41;8.45;;;2.97;;
67675;SDS011;54456;48.436;10.028;2023-04-25T06:40:12;8.40;;;2.90;;
67675;SDS011;54456;48.436;10.028;2023-04-25T06:41:42;9.20;;;3.50;;
67675;SDS011;54456;48.436;10.028;2023-04-25T06:43:12;8.60;;;2.90;;
67675;SDS011;54456;48.436;10.028;2023-04-25T06:44:42;7.93;;;2.70;;
67675;SDS011;54456;48.436;10.028;2023-04-25T06:46:12;8.33;;;2.70;;
67675;SDS011;54456;48.436;10.028;2023-04-25T06:47:43;8.67;;;2.97;;
67675;SDS011;54456;48.436;10.028;2023-04-25T06:49:13;8.60;;;2.80;;
67675;SDS011;54456;48.436;10.028;2023-04-25T06:50:43;8.73;;;3.17;;
67675;SDS011;54456;48.436;10.028;2023-04-25T06:52:13;9.98;;;3.08;;
67675;SDS011;54456;48.436;10.028;2023-04-25T06:53:44;8.10;;;2.80;;
67675;SDS011;54456;48.436;10.028;2023-04-25T06:55:14;8.60;;;3.20;;
67675;SDS011;54456;48.436;10.028;2023-04-25T06:56:44;10.07;;;2.93;;
67675;SDS011;54456;48.436;10.028;2023-04-25T06:58:14;6.23;;;2.70;;
67675;SDS011;54456;48.436;10.028;2023-04-25T06:59:45;9.55;;;2.95;;
67675;SDS011;54456;48.436;10.028;2023-04-25T07:01:15;8.07;;;2.72;;
67675;SDS011;54456;48.436;10.028;2023-04-25T07:02:46;9.23;;;2.90;;
67675;SDS011;54456;48.436;10.028;2023-04-25T07:04:16;8.27;;;2.70;;
67675;SDS011;54456;48.436;10.028;2023-04-25T07:05:46;7.27;;;2.30;;
67675;SDS011;54456;48.436;10.028;2023-04-25T07:07:16;8.17;;;2.70;;
67675;SDS011;54456;48.436;10.028;2023-04-25T07:08:47;8.25;;;2.85;;
67675;SDS011;54456;48.436;10.028;2023-04-25T07:10:17;6.23;;;2.60;;
67675;SDS011;54456;48.436;10.028;2023-04-25T07:11:47;7.70;;;2.40;;
67675;SDS011;54456;48.436;10.028;2023-04-25T07:13:17;5.17;;;1.73;;
67675;SDS011;54456;48.436;10.028;2023-04-25T07:14:48;6.80;;;2.27;;
67675;SDS011;54456;48.436;10.028;2023-04-25T07:16:18;7.00;;;2.43;;
67675;SDS011;54456;48.436;10.028;2023-04-25T07:17:48;7.47;;;2.50;;
67675;SDS011;54456;48.436;10.028;2023-04-25T07:19:18;7.60;;;2.97;;
67675;SDS011;54456;48.436;10.028;2023-04-25T07:20:49;6.53;;;2.07;;
67675;SDS011;54456;48.436;10.028;2023-04-25T07:22:19;8.40;;;3.00;;
67675;SDS011;54456;48.436;10.028;2023-04-25T07:23:49;7.63;;;2.40;;
67675;SDS011;54456;48.436;10.028;2023-04-25T07:25:19;7.50;;;2.10;;
67675;SDS011;54456;48.436;10.028;2023-04-25T07:26:50;7.32;;;2.38;;
67675;SDS011;54456;48.436;10.028;2023-04-25T07:28:20;8.50;;;2.57;;
67675;SDS011;54456;48.436;10.028;2023-04-25T07:29:50;9.63;;;2.43;;
67675;SDS011;54456;48.436;10.028;2023-04-25T07:31:21;7.03;;;2.43;;
67675;SDS011;54456;48.436;10.028;2023-04-25T07:32:51;6.72;;;2.30;;
67675;SDS011;54456;48.436;10.028;2023-04-25T07:34:22;6.23;;;2.53;;
67675;SDS011;54456;48.436;10.028;2023-04-25T07:35:52;7.13;;;2.50;;
67675;SDS011;54456;48.436;10.028;2023-04-25T07:37:22;6.05;;;2.17;;
67675;SDS011;54456;48.436;10.028;2023-04-25T07:38:52;9.67;;;2.50;;
67675;SDS011;54456;48.436;10.028;2023-04-25T07:40:23;6.67;;;2.57;;
67675;SDS011;54456;48.436;10.028;2023-04-25T07:41:53;8.10;;;2.40;;
67675;SDS011;54456;48.436;10.028;2023-04-25T07:43:23;7.47;;;2.77;;
67675;SDS011;54456;48.436;10.028;2023-04-25T07:44:53;5.50;;;1.90;;
67675;SDS011;54456;48.436;10.028;2023-04-25T07:46:24;8.73;;;2.17;;
67675;SDS011;54456;48.436;10.028;2023-04-25T07:47:54;7.40;;;2.20;;
67675;SDS011;54456;48.436;10.028;2023-04-25T07:49:24;9.53;;;2.63;;
67675;SDS011;54456;48.436;10.028;2023-04-25T07:50:54;9.10;;;2.60;;
67675;SDS011;54456;48.436;10.028;2023-04-25T07:52:25;8.63;;;2.33;;
67675;SDS011;54456;48.436;10.028;2023-04-25T07:53:55;8.30;;;2.40;;
67675;SDS011;54456;48.436;10.028;2023-04-25T07:55:25;7.63;;;2.60;;
67675;SDS011;54456;48.436;10.028;2023-04-25T07:56:56;7.65;;;2.40;;
67675;SDS011;54456;48.436;10.028;2023-04-25T07:58:26;7.17;;;2.53;;
67675;SDS011;54456;48.436;10.028;2023-04-25T07:59:56;6.70;;;2.50;;
67675;SDS011;54456;48.436;10.028;2023-04-25T08:01:26;7.40;;;2.80;;
67675;SDS011;54456;48.436;10.028;2023-04-25T08:02:57;8.17;;;2.67;;
67675;SDS011;54456;48.436;10.028;2023-04-25T08:04:27;6.33;;;2.10;;
67675;SDS011;54456;48.436;10.028;2023-04-25T08:05:57;6.80;;;2.20;;
67675;SDS011;54456;48.436;10.028;2023-04-25T08:07:27;7.13;;;2.47;;
67675;SDS011;54456;48.436;10.028;2023-04-25T08:08:57;11.17;;;2.70;;
67675;SDS011;54456;48.436;10.028;2023-04-25T08:10:28;7.30;;;2.50;;
67675;SDS011;54456;48.436;10.028;2023-04-25T08:11:58;7.57;;;2.70;;
67675;SDS011;54456;48.436;10.028;2023-04-25T08:13:28;9.27;;;2.43;;
67675;SDS011;54456;48.436;10.028;2023-04-25T08:14:58;7.50;;;2.53;;
67675;SDS011;54456;48.436;10.028;2023-04-25T08:16:28;6.20;;;2.07;;
67675;SDS011;54456;48.436;10.028;2023-04-25T08:17:59;7.57;;;2.60;;
67675;SDS011;54456;48.436;10.028;2023-04-25T08:19:29;7.03;;;2.50;;
67675;SDS011;54456;48.436;10.028;2023-04-25T08:21:00;7.03;;;2.33;;
67675;SDS011;54456;48.436;10.028;2023-04-25T08:22:30;7.00;;;3.00;;
67675;SDS011;54456;48.436;10.028;2023-04-25T08:24:01;9.37;;;2.53;;
67675;SDS011;54456;48.436;10.028;2023-04-25T08:25:31;6.37;;;2.03;;
67675;SDS011;54456;48.436;10.028;2023-04-25T08:27:01;7.50;;;2.50;;
67675;SDS011;54456;48.436;10.028;2023-04-25T08:28:32;5.78;;;2.03;;
67675;SDS011;54456;48.436;10.028;2023-04-25T08:30:03;6.50;;;2.30;;
67675;SDS011;54456;48.436;10.028;2023-04-25T08:31:33;8.77;;;2.28;;
67675;SDS011;54456;48.436;10.028;2023-04-25T08:33:03;6.83;;;2.40;;
67675;SDS011;54456;48.436;10.028;2023-04-25T08:34:34;8.40;;;2.20;;
67675;SDS011;54456;48.436;10.028;2023-04-25T08:36:04;6.60;;;2.20;;
67675;SDS011;54456;48.436;10.028;2023-04-25T08:37:34;6.70;;;2.60;;
67675;SDS011;54456;48.436;10.028;2023-04-25T08:39:06;6.93;;;2.53;;
67675;SDS011;54456;48.436;10.028;2023-04-25T08:40:37;7.63;;;2.72;;
67675;SDS011;54456;48.436;10.028;2023-04-25T08:42:08;4.97;;;2.05;;
67675;SDS011;54456;48.436;10.028;2023-04-25T08:43:38;6.10;;;2.13;;
67675;SDS011;54456;48.436;10.028;2023-04-25T08:45:11;6.32;;;2.25;;
67675;SDS011;54456;48.436;10.028;2023-04-25T08:46:41;6.70;;;2.10;;
67675;SDS011;54456;48.436;10.028;2023-04-25T08:48:12;8.60;;;1.70;;
67675;SDS011;54456;48.436;10.028;2023-04-25T08:49:45;7.45;;;2.88;;
67675;SDS011;54456;48.436;10.028;2023-04-25T08:51:21;6.00;;;1.98;;
67675;SDS011;54456;48.436;10.028;2023-04-25T08:52:53;7.38;;;2.45;;
67675;SDS011;54456;48.436;10.028;2023-04-25T08:54:23;7.28;;;2.25;;
67675;SDS011;54456;48.436;10.028;2023-04-25T08:55:58;7.30;;;2.08;;
67675;SDS011;54456;48.436;10.028;2023-04-25T08:57:29;6.07;;;2.25;;
67675;SDS011;54456;48.436;10.028;2023-04-25T08:59:01;5.68;;;2.00;;
67675;SDS011;54456;48.436;10.028;2023-04-25T09:00:32;4.20;;;1.48;;
67675;SDS011;54456;48.436;10.028;2023-04-25T09:02:02;6.27;;;1.97;;
67675;SDS011;54456;48.436;10.028;2023-04-25T09:03:33;5.78;;;1.75;;
67675;SDS011;54456;48.436;10.028;2023-04-25T09:05:03;5.57;;;1.70;;
67675;SDS011;54456;48.436;10.028;2023-04-25T09:06:42;5.15;;;1.83;;
67675;SDS011;54456;48.436;10.028;2023-04-25T09:08:12;7.50;;;2.10;;
67675;SDS011;54456;48.436;10.028;2023-04-25T09:09:43;6.30;;;1.90;;
67675;SDS011;54456;48.436;10.028;2023-04-25T09:11:13;5.77;;;1.90;;
67675;SDS011;54456;48.436;10.028;2023-04-25T09:12:44;7.72;;;2.10;;
67675;SDS011;54456;48.436;10.028;2023-04-25T09:17:19;5.53;;;2.00;;
67675;SDS011;54456;48.436;10.028;2023-04-25T09:18:50;7.38;;;1.60;;
67675;SDS011;54456;48.436;10.028;2023-04-25T09:20:20;6.43;;;1.70;;
67675;SDS011;54456;48.436;10.028;2023-04-25T09:21:50;4.80;;;1.60;;
67675;SDS011;54456;48.436;10.028;2023-04-25T09:23:21;4.78;;;1.52;;
67675;SDS011;54456;48.436;10.028;2023-04-25T09:24:51;5.88;;;1.70;;
67675;SDS011;54456;48.436;10.028;2023-04-25T09:26:22;4.60;;;1.98;;
67675;SDS011;54456;48.436;10.028;2023-04-25T09:27:52;4.77;;;1.80;;
67675;SDS011;54456;48.436;10.028;2023-04-25T09:29:32;6.97;;;2.00;;
67675;SDS011;54456;48.436;10.028;2023-04-25T09:31:03;5.72;;;1.98;;
67675;SDS011;54456;48.436;10.028;2023-04-25T09:32:33;4.80;;;1.70;;
67675;SDS011;54456;48.436;10.028;2023-04-25T09:34:03;4.73;;;1.60;;
67675;SDS011;54456;48.436;10.028;2023-04-25T09:35:41;5.93;;;1.83;;
67675;SDS011;54456;48.436;10.028;2023-04-25T09:37:12;6.05;;;2.00;;
67675;SDS011;54456;48.436;10.028;2023-04-25T09:38:45;6.10;;;1.90;;
67675;SDS011;54456;48.436;10.028;2023-04-25T09:40:16;5.57;;;1.80;;
67675;SDS011;54456;48.436;10.028;2023-04-25T09:41:47;6.28;;;2.17;;
67675;SDS011;54456;48.436;10.028;2023-04-25T09:43:23;7.00;;;2.40;;
67675;SDS011;54456;48.436;10.028;2023-04-25T09:44:55;5.95;;;2.17;;
67675;SDS011;54456;48.436;10.028;2023-04-25T09:46:25;5.28;;;1.95;;
67675;SDS011;54456;48.436;10.028;2023-04-25T09:47:55;7.60;;;3.27;;
67675;SDS011;54456;48.436;10.028;2023-04-25T09:49:26;6.25;;;2.80;;
67675;SDS011;54456;48.436;10.028;2023-04-25T09:52:35;7.82;;;3.47;;
67675;SDS011;54456;48.436;10.028;2023-04-25T09:54:05;6.77;;;2.90;;
67675;SDS011;54456;48.436;10.028;2023-04-25T09:55:36;6.60;;;2.50;;
67675;SDS011;54456;48.436;10.028;2023-04-25T09:57:09;7.22;;;2.92;;
67675;SDS011;54456;48.436;10.028;2023-04-25T09:58:41;5.63;;;2.47;;
67675;SDS011;54456;48.436;10.028;2023-04-25T10:00:11;4.15;;;1.60;;
67675;SDS011;54456;48.436;10.028;2023-04-25T10:01:43;4.07;;;1.33;;
67675;SDS011;54456;48.436;10.028;2023-04-25T10:03:13;2.60;;;1.20;;
67675;SDS011;54456;48.436;10.028;2023-04-25T10:04:44;3.80;;;1.13;;
67675;SDS011;54456;48.436;10.028;2023-04-25T10:06:20;3.63;;;1.23;;
67675;SDS011;54456;48.436;10.028;2023-04-25T10:07:52;3.58;;;1.15;;
67675;SDS011;54456;48.436;10.028;2023-04-25T10:09:24;3.40;;;1.42;;
67675;SDS011;54456;48.436;10.028;2023-04-25T10:10:55;6.05;;;2.10;;
67675;SDS011;54456;48.436;10.028;2023-04-25T10:12:26;7.97;;;2.63;;
67675;SDS011;54456;48.436;10.028;2023-04-25T10:13:56;7.28;;;2.28;;
67675;SDS011;54456;48.436;10.028;2023-04-25T10:15:26;5.57;;;1.58;;
67675;SDS011;54456;48.436;10.028;2023-04-25T10:17:00;10.70;;;3.20;;
67675;SDS011;54456;48.436;10.028;2023-04-25T10:18:31;6.88;;;3.13;;
67675;SDS011;54456;48.436;10.028;2023-04-25T10:20:02;6.57;;;1.73;;
67675;SDS011;54456;48.436;10.028;2023-04-25T10:21:43;3.22;;;0.98;;
67675;SDS011;54456;48.436;10.028;2023-04-25T10:23:16;8.98;;;2.13;;
67675;SDS011;54456;48.436;10.028;2023-04-25T10:24:46;4.75;;;1.85;;
67675;SDS011;54456;48.436;10.028;2023-04-25T10:26:17;8.52;;;2.55;;
67675;SDS011;54456;48.436;10.028;2023-04-25T10:27:49;6.90;;;1.73;;
67675;SDS011;54456;48.436;10.028;2023-04-25T10:29:23;7.50;;;2.75;;
67675;SDS011;54456;48.436;10.028;2023-04-25T10:31:03;9.80;;;3.22;;
67675;SDS011;54456;48.436;10.028;2023-04-25T10:32:34;7.55;;;2.45;;
67675;SDS011;54456;48.436;10.028;2023-04-25T10:34:05;5.38;;;1.80;;
67675;SDS011;54456;48.436;10.028;2023-04-25T10:35:35;5.30;;;2.03;;
67675;SDS011;54456;48.436;10.028;2023-04-25T10:37:08;6.35;;;2.03;;
67675;SDS011;54456;48.436;10.028;2023-04-25T10:38:38;9.50;;;2.00;;
67675;SDS011;54456;48.436;10.028;2023-04-25T10:40:09;5.80;;;1.60;;
67675;SDS011;54456;48.436;10.028;2023-04-25T10:42:13;6.63;;;1.83;;
67675;SDS011;54456;48.436;10.028;2023-04-25T10:43:38;3.70;;;1.50;;
67675;SDS011;54456;48.436;10.028;2023-04-25T10:45:09;5.15;;;2.15;;
67675;SDS011;54456;48.436;10.028;2023-04-25T10:46:39;7.70;;;2.33;;
67675;SDS011;54456;48.436;10.028;2023-04-25T10:48:28;9.67;;;3.50;;
67675;SDS011;54456;48.436;10.028;2023-04-25T10:49:59;7.93;;;2.90;;
67675;SDS011;54456;48.436;10.028;2023-04-25T10:51:34;9.90;;;2.95;;
67675;SDS011;54456;48.436;10.028;2023-04-25T10:53:15;7.45;;;2.53;;
67675;SDS011;54456;48.436;10.028;2023-04-25T10:54:49;6.95;;;2.22;;
67675;SDS011;54456;48.436;10.028;2023-04-25T10:57:57;6.68;;;2.00;;
67675;SDS011;54456;48.436;10.028;2023-04-25T10:59:27;7.30;;;2.50;;
67675;SDS011;54456;48.436;10.028;2023-04-25T11:00:58;8.18;;;3.10;;
67675;SDS011;54456;48.436;10.028;2023-04-25T11:02:28;9.07;;;2.93;;
67675;SDS011;54456;48.436;10.028;2023-04-25T11:03:59;8.60;;;2.95;;
67675;SDS011;54456;48.436;10.028;2023-04-25T11:05:35;12.37;;;3.30;;
67675;SDS011;54456;48.436;10.028;2023-04-25T11:08:49;11.52;;;4.70;;
67675;SDS011;54456;48.436;10.028;2023-04-25T11:10:20;11.10;;;4.00;;
67675;SDS011;54456;48.436;10.028;2023-04-25T11:11:55;11.38;;;4.20;;
67675;SDS011;54456;48.436;10.028;2023-04-25T11:13:29;13.20;;;4.55;;
67675;SDS011;54456;48.436;10.028;2023-04-25T11:15:06;10.95;;;3.92;;
67675;SDS011;54456;48.436;10.028;2023-04-25T11:16:37;11.55;;;4.50;;
67675;SDS011;54456;48.436;10.028;2023-04-25T11:18:07;10.00;;;3.97;;
67675;SDS011;54456;48.436;10.028;2023-04-25T11:19:37;6.43;;;2.40;;
67675;SDS011;54456;48.436;10.028;2023-04-25T11:21:07;4.60;;;1.50;;
67675;SDS011;54456;48.436;10.028;2023-04-25T11:22:38;5.70;;;1.88;;
67675;SDS011;54456;48.436;10.028;2023-04-25T11:24:10;2.97;;;1.25;;
67675;SDS011;54456;48.436;10.028;2023-04-25T11:25:41;3.17;;;1.25;;
67675;SDS011;54456;48.436;10.028;2023-04-25T11:27:12;3.58;;;1.00;;
67675;SDS011;54456;48.436;10.028;2023-04-25T11:28:44;2.63;;;1.13;;
67675;SDS011;54456;48.436;10.028;2023-04-25T11:30:15;3.83;;;1.45;;
67675;SDS011;54456;48.436;10.028;2023-04-25T11:31:45;3.53;;;1.40;;
67675;SDS011;54456;48.436;10.028;2023-04-25T11:33:16;10.10;;;1.20;;
67675;SDS011;54456;48.436;10.028;2023-04-25T11:34:46;3.53;;;1.10;;
67675;SDS011;54456;48.436;10.028;2023-04-25T11:36:16;4.30;;;1.00;;
67675;SDS011;54456;48.436;10.028;2023-04-25T11:37:46;3.40;;;1.20;;
67675;SDS011;54456;48.436;10.028;2023-04-25T11:39:17;2.47;;;0.90;;
67675;SDS011;54456;48.436;10.028;2023-04-25T11:40:51;2.10;;;0.95;;
67675;SDS011;54456;48.436;10.028;2023-04-25T11:42:21;3.67;;;1.27;;
67675;SDS011;54456;48.436;10.028;2023-04-25T11:43:52;4.10;;;1.20;;
67675;SDS011;54456;48.436;10.028;2023-04-25T11:45:24;4.05;;;1.30;;
67675;SDS011;54456;48.436;10.028;2023-04-25T11:46:54;4.05;;;1.67;;
67675;SDS011;54456;48.436;10.028;2023-04-25T11:48:25;2.28;;;0.95;;
67675;SDS011;54456;48.436;10.028;2023-04-25T11:49:55;4.23;;;1.50;;
67675;SDS011;54456;48.436;10.028;2023-04-25T11:51:25;2.70;;;1.00;;
67675;SDS011;54456;48.436;10.028;2023-04-25T11:52:56;14.00;;;1.77;;
67675;SDS011;54456;48.436;10.028;2023-04-25T11:54:26;3.22;;;1.10;;
67675;SDS011;54456;48.436;10.028;2023-04-25T11:55:57;3.97;;;1.17;;
67675;SDS011;54456;48.436;10.028;2023-04-25T11:57:27;2.83;;;1.23;;
67675;SDS011;54456;48.436;10.028;2023-04-25T11:59:01;3.00;;;1.10;;
67675;SDS011;54456;48.436;10.028;2023-04-25T12:00:32;2.92;;;1.17;;
67675;SDS011;54456;48.436;10.028;2023-04-25T12:02:02;3.37;;;1.03;;
67675;SDS011;54456;48.436;10.028;2023-04-25T12:03:32;3.73;;;1.33;;
67675;SDS011;54456;48.436;10.028;2023-04-25T12:05:05;4.97;;;1.67;;
67675;SDS011;54456;48.436;10.028;2023-04-25T12:06:39;3.47;;;1.30;;
67675;SDS011;54456;48.436;10.028;2023-04-25T12:08:13;3.47;;;1.50;;
67675;SDS011;54456;48.436;10.028;2023-04-25T12:09:44;1.85;;;1.00;;
67675;SDS011;54456;48.436;10.028;2023-04-25T12:11:21;5.47;;;1.60;;
67675;SDS011;54456;48.436;10.028;2023-04-25T12:12:51;4.03;;;1.35;;
67675;SDS011;54456;48.436;10.028;2023-04-25T12:14:23;4.23;;;1.40;;
67675;SDS011;54456;48.436;10.028;2023-04-25T12:15:57;4.22;;;1.60;;
67675;SDS011;54456;48.436;10.028;2023-04-25T12:17:28;4.53;;;1.50;;
67675;SDS011;54456;48.436;10.028;2023-04-25T12:18:58;3.67;;;1.35;;
67675;SDS011;54456;48.436;10.028;2023-04-25T12:20:31;4.13;;;1.45;;